createdAt,value
2018-09-06T00:00:48.837Z,16.77
2018-09-06T00:03:17.223Z,18.10
2018-09-06T00:05:45.537Z,18.37
2018-09-06T00:08:13.846Z,13.63
2018-09-06T00:10:42.289Z,17.23
2018-09-06T00:13:10.693Z,17.40
2018-09-06T00:15:39.048Z,20.07
2018-09-06T00:18:07.411Z,16.97
2018-09-06T00:20:35.720Z,17.30
2018-09-06T00:23:04.094Z,14.67
2018-09-06T00:25:33.071Z,17.37
2018-09-06T00:28:01.578Z,15.73
2018-09-06T00:30:29.979Z,16.00
2018-09-06T00:35:32.999Z,12.80
2018-09-06T00:38:01.768Z,16.57
2018-09-06T00:40:30.070Z,16.13
2018-09-06T00:42:58.400Z,16.20
2018-09-06T00:45:26.692Z,17.63
2018-09-06T00:47:55.075Z,18.37
2018-09-06T00:50:23.358Z,13.73
2018-09-06T00:52:52.680Z,17.57
2018-09-06T00:55:21.531Z,16.63
2018-09-06T00:57:49.822Z,19.23
2018-09-06T01:00:18.168Z,18.10
2018-09-06T01:02:46.490Z,19.37
2018-09-06T01:05:14.778Z,19.60
2018-09-06T01:07:43.098Z,15.73
2018-09-06T01:10:11.444Z,16.20
2018-09-06T01:12:39.783Z,15.47
2018-09-06T01:15:08.112Z,16.47
2018-09-06T01:17:36.447Z,15.07
2018-09-06T01:20:04.836Z,17.43
2018-09-06T01:22:33.196Z,16.97
2018-09-06T01:25:01.552Z,15.13
2018-09-06T01:27:29.877Z,16.33
2018-09-06T01:29:58.188Z,21.60
2018-09-06T01:32:26.527Z,15.87
2018-09-06T01:34:54.804Z,15.80
2018-09-06T01:37:23.109Z,15.50
2018-09-06T01:39:51.393Z,15.13
2018-09-06T01:42:19.707Z,15.70
2018-09-06T01:44:48.041Z,14.50
2018-09-06T01:47:16.364Z,15.17
2018-09-06T01:49:44.699Z,17.47
2018-09-06T01:52:13.031Z,16.33
2018-09-06T01:54:41.344Z,14.87
2018-09-06T01:57:09.675Z,15.73
2018-09-06T01:59:39.384Z,16.57
2018-09-06T02:02:08.363Z,18.30
2018-09-06T02:04:37.187Z,14.00
2018-09-06T02:07:05.843Z,15.57
2018-09-06T02:09:34.157Z,15.63
2018-09-06T02:12:02.611Z,13.87
2018-09-06T02:14:30.955Z,17.30
2018-09-06T02:16:59.344Z,14.57
2018-09-06T02:19:27.670Z,15.37
2018-09-06T02:21:55.998Z,15.23
2018-09-06T02:24:24.459Z,15.57
2018-09-06T02:26:52.737Z,16.37
2018-09-06T02:29:21.262Z,19.07
2018-09-06T02:31:49.563Z,20.37
2018-09-06T02:34:17.885Z,16.00
2018-09-06T02:36:46.200Z,14.90
2018-09-06T02:39:14.628Z,14.30
2018-09-06T02:41:42.922Z,14.33
2018-09-06T02:44:11.250Z,17.07
2018-09-06T02:46:39.524Z,17.33
2018-09-06T02:49:07.827Z,18.50
2018-09-06T02:51:36.141Z,17.30
2018-09-06T02:54:04.460Z,14.37
2018-09-06T02:56:32.752Z,16.07
2018-09-06T02:59:01.055Z,14.63
2018-09-06T03:01:29.425Z,13.90
2018-09-06T03:04:04.439Z,17.13
2018-09-06T03:06:32.736Z,16.03
2018-09-06T03:09:01.067Z,12.93
2018-09-06T03:11:34.756Z,12.83
2018-09-06T03:14:03.136Z,15.23
2018-09-06T03:16:31.480Z,15.93
2018-09-06T03:18:59.817Z,15.97
2018-09-06T03:21:28.108Z,15.37
2018-09-06T03:23:56.433Z,16.37
2018-09-06T03:26:24.793Z,14.07
2018-09-06T03:28:53.100Z,13.80
2018-09-06T03:31:21.960Z,14.77
2018-09-06T03:33:50.618Z,15.63
2018-09-06T03:36:18.930Z,17.17
2018-09-06T03:38:47.293Z,18.23
2018-09-06T03:41:15.595Z,15.27
2018-09-06T03:43:43.956Z,16.80
2018-09-06T03:46:12.302Z,16.13
2018-09-06T03:48:40.642Z,14.40
2018-09-06T03:51:08.963Z,17.80
2018-09-06T03:53:37.315Z,17.47
2018-09-06T03:56:05.612Z,15.67
2018-09-06T03:58:33.973Z,21.20
2018-09-06T04:01:02.299Z,15.33
2018-09-06T04:03:30.634Z,15.63
2018-09-06T04:05:58.939Z,18.40
2018-09-06T04:08:27.255Z,15.40
2018-09-06T04:10:55.585Z,15.57
2018-09-06T04:13:23.880Z,14.80
2018-09-06T04:15:52.198Z,16.33
2018-09-06T04:18:20.494Z,14.83
2018-09-06T04:20:48.804Z,15.90
2018-09-06T04:23:17.146Z,20.30
2018-09-06T04:25:45.484Z,16.33
2018-09-06T04:28:13.981Z,15.77
2018-09-06T04:30:42.343Z,20.73
2018-09-06T04:33:10.725Z,19.27
2018-09-06T04:35:39.051Z,17.00
2018-09-06T04:38:07.359Z,17.90
2018-09-06T04:40:35.799Z,18.73
2018-09-06T04:43:04.103Z,17.13
2018-09-06T04:45:32.429Z,22.17
2018-09-06T04:48:00.761Z,17.83
2018-09-06T04:50:29.146Z,16.07
2018-09-06T04:52:57.469Z,17.13
2018-09-06T04:55:25.864Z,17.77
2018-09-06T04:57:54.120Z,16.97
2018-09-06T05:00:22.433Z,19.37
2018-09-06T05:02:50.994Z,17.00
2018-09-06T05:05:19.303Z,18.10
2018-09-06T05:07:47.648Z,18.73
2018-09-06T05:10:15.974Z,30.33
2018-09-06T05:12:44.285Z,18.00
2018-09-06T05:15:12.726Z,18.57
2018-09-06T05:17:41.031Z,21.97
2018-09-06T05:20:09.133Z,19.50
2018-09-06T05:22:37.432Z,21.70
2018-09-06T05:25:05.861Z,24.67
2018-09-06T05:27:34.149Z,22.10
2018-09-06T05:30:02.491Z,21.33
2018-09-06T05:32:30.843Z,24.13
2018-09-06T05:34:59.228Z,24.37
2018-09-06T05:37:27.482Z,20.43
2018-09-06T05:39:55.848Z,21.70
2018-09-06T05:42:24.165Z,23.33
2018-09-06T05:44:52.515Z,20.83
2018-09-06T05:47:20.857Z,25.60
2018-09-06T05:49:49.326Z,23.10
2018-09-06T05:52:17.614Z,19.63
2018-09-06T05:54:45.962Z,21.33
2018-09-06T05:57:14.300Z,22.00
2018-09-06T05:59:42.712Z,23.23
2018-09-06T06:02:10.999Z,21.57
2018-09-06T06:04:39.438Z,18.87
2018-09-06T06:07:07.765Z,17.67
2018-09-06T06:09:36.164Z,25.70
2018-09-06T06:12:04.467Z,21.73
2018-09-06T06:14:32.778Z,26.37
2018-09-06T06:17:01.079Z,22.73
2018-09-06T06:19:29.402Z,24.47
2018-09-06T06:21:57.757Z,21.60
2018-09-06T06:24:26.144Z,21.10
2018-09-06T06:26:54.506Z,22.50
2018-09-06T06:29:22.873Z,22.07
2018-09-06T06:31:51.236Z,24.80
2018-09-06T06:34:19.488Z,20.13
2018-09-06T06:36:48.564Z,21.00
2018-09-06T06:39:16.893Z,23.40
2018-09-06T06:41:45.285Z,21.00
2018-09-06T06:44:13.615Z,25.70
2018-09-06T06:46:41.985Z,25.00
2018-09-06T06:49:10.264Z,24.20
2018-09-06T06:51:38.696Z,34.20
2018-09-06T06:54:06.966Z,20.60
2018-09-06T06:56:36.395Z,24.03
2018-09-06T06:59:04.751Z,21.13
2018-09-06T07:01:33.602Z,21.10
2018-09-06T07:04:02.332Z,23.97
2018-09-06T07:06:30.648Z,18.70
2018-09-06T07:08:59.430Z,23.43
2018-09-06T07:11:27.732Z,26.83
2018-09-06T07:13:56.155Z,24.50
2018-09-06T07:16:24.443Z,16.57
2018-09-06T07:18:52.772Z,19.83
2018-09-06T07:21:21.290Z,26.43
2018-09-06T07:23:49.691Z,23.93
2018-09-06T07:26:18.048Z,22.40
2018-09-06T07:28:46.384Z,21.30
2018-09-06T07:31:14.708Z,21.10
2018-09-06T07:33:43.056Z,18.67
2018-09-06T07:36:11.451Z,22.00
2018-09-06T07:38:39.735Z,19.50
2018-09-06T07:41:08.095Z,21.77
2018-09-06T07:43:36.389Z,22.20
2018-09-06T07:46:04.778Z,22.07
2018-09-06T07:48:33.472Z,22.70
2018-09-06T07:51:02.131Z,27.23
2018-09-06T07:53:30.503Z,21.37
2018-09-06T07:55:58.863Z,18.67
2018-09-06T07:58:27.427Z,17.77
2018-09-06T08:00:55.773Z,15.97
2018-09-06T08:03:24.112Z,16.07
2018-09-06T08:05:52.452Z,17.50
2018-09-06T08:08:20.762Z,18.40
2018-09-06T08:10:49.099Z,16.10
2018-09-06T08:13:17.447Z,18.00
2018-09-06T08:15:45.779Z,17.27
2018-09-06T08:18:14.757Z,14.60
2018-09-06T08:20:43.073Z,14.90
2018-09-06T08:23:11.402Z,14.23
2018-09-06T08:25:40.364Z,17.43
2018-09-06T08:28:08.674Z,17.03
2018-09-06T08:30:37.352Z,18.57
2018-09-06T08:33:05.718Z,13.90
2018-09-06T08:35:34.145Z,18.70
2018-09-06T08:38:03.227Z,17.43
2018-09-06T08:40:31.649Z,15.13
2018-09-06T08:43:07.216Z,14.50
2018-09-06T08:45:35.560Z,18.77
2018-09-06T08:48:03.883Z,17.90
2018-09-06T08:50:32.364Z,16.23
2018-09-06T08:53:00.685Z,16.03
2018-09-06T08:55:28.976Z,18.23
2018-09-06T08:57:57.312Z,16.37
2018-09-06T09:00:25.609Z,18.20
2018-09-06T09:02:54.113Z,15.10
2018-09-06T09:05:22.400Z,19.47
2018-09-06T09:07:51.885Z,17.03
2018-09-06T09:10:23.742Z,13.87
2018-09-06T09:12:52.088Z,16.93
2018-09-06T09:15:20.562Z,17.23
2018-09-06T09:17:48.894Z,16.67
2018-09-06T09:20:18.155Z,16.37
2018-09-06T09:22:46.617Z,15.40
2018-09-06T09:25:14.950Z,15.17
2018-09-06T09:27:49.818Z,16.03
2018-09-06T09:30:18.127Z,14.50
2018-09-06T09:32:46.473Z,16.60
2018-09-06T09:35:14.791Z,22.63
2018-09-06T09:37:43.185Z,23.83
2018-09-06T09:40:11.515Z,18.57
2018-09-06T09:42:39.853Z,20.57
2018-09-06T09:45:08.334Z,18.20
2018-09-06T09:50:04.220Z,15.23
2018-09-06T09:52:32.563Z,16.00
2018-09-06T09:55:04.254Z,18.73
2018-09-06T09:57:32.739Z,16.87
2018-09-06T10:00:01.289Z,16.40
2018-09-06T10:02:33.811Z,18.67
2018-09-06T10:05:07.703Z,20.20
2018-09-06T10:07:41.448Z,19.60
2018-09-06T10:10:09.774Z,24.53
2018-09-06T10:12:38.154Z,23.57
2018-09-06T10:15:06.527Z,21.00
2018-09-06T10:17:35.378Z,19.60
2018-09-06T10:20:03.703Z,20.67
2018-09-06T10:22:32.041Z,23.13
2018-09-06T10:25:00.377Z,20.70
2018-09-06T10:27:28.748Z,20.00
2018-09-06T10:29:57.100Z,21.07
2018-09-06T10:32:25.415Z,21.73
2018-09-06T10:34:53.707Z,22.07
2018-09-06T10:37:22.015Z,27.33
2018-09-06T10:39:50.558Z,22.23
2018-09-06T10:42:18.908Z,20.67
2018-09-06T10:44:47.232Z,18.40
2018-09-06T10:47:15.550Z,25.63
2018-09-06T10:49:43.876Z,19.83
2018-09-06T10:52:12.230Z,23.23
2018-09-06T10:54:40.561Z,21.00
2018-09-06T10:57:09.109Z,18.23
2018-09-06T10:59:37.474Z,25.03
2018-09-06T11:02:06.107Z,22.03
2018-09-06T11:04:34.449Z,20.13
2018-09-06T11:07:02.961Z,21.93
2018-09-06T11:09:31.260Z,20.93
2018-09-06T11:11:59.609Z,25.97
2018-09-06T11:14:28.180Z,22.40
2018-09-06T11:16:56.448Z,20.50
2018-09-06T11:19:24.797Z,22.90
2018-09-06T11:21:53.280Z,17.93
2018-09-06T11:31:20.952Z,17.93
2018-09-06T11:33:49.378Z,18.97
2018-09-06T11:36:17.675Z,19.27
2018-09-06T11:38:46.042Z,19.67
2018-09-06T11:41:14.581Z,19.53
2018-09-06T11:43:43.003Z,17.70
2018-09-06T11:46:11.307Z,20.87
2018-09-06T11:48:39.742Z,17.23
2018-09-06T11:51:08.701Z,20.63
2018-09-06T11:53:37.096Z,18.60
2018-09-06T11:56:05.658Z,17.00
2018-09-06T11:58:34.046Z,20.47
2018-09-06T12:01:02.414Z,18.80
2018-09-06T12:03:30.922Z,20.07
2018-09-06T12:05:59.283Z,19.97
2018-09-06T12:08:27.984Z,17.40
2018-09-06T12:10:56.284Z,19.03
2018-09-06T12:13:24.711Z,20.57
2018-09-06T12:15:53.063Z,20.30
2018-09-06T12:18:21.393Z,20.90
2018-09-06T12:20:49.755Z,16.57
2018-09-06T12:23:18.078Z,19.17
2018-09-06T12:25:46.603Z,20.33
2018-09-06T12:28:14.960Z,19.40
2018-09-06T12:30:43.282Z,15.37
2018-09-06T12:33:11.663Z,19.90
2018-09-06T12:35:39.998Z,17.50
2018-09-06T12:38:08.308Z,17.87
2018-09-06T12:40:36.609Z,18.33
2018-09-06T12:43:04.892Z,16.83
2018-09-06T12:45:33.221Z,20.50
2018-09-06T12:48:01.545Z,18.13
2018-09-06T12:50:29.885Z,20.77
2018-09-06T12:52:58.297Z,21.43
2018-09-06T12:55:26.646Z,20.80
2018-09-06T12:57:54.943Z,21.05
2018-09-06T13:00:23.265Z,21.23
2018-09-06T13:02:51.542Z,18.60
2018-09-06T13:05:19.869Z,21.40
2018-09-06T13:07:48.145Z,21.00
2018-09-06T13:10:16.492Z,20.83
2018-09-06T13:12:44.800Z,20.30
2018-09-06T13:15:13.294Z,18.30
2018-09-06T13:17:41.603Z,19.90
2018-09-06T13:20:09.948Z,18.43
2018-09-06T13:22:38.327Z,18.60
2018-09-06T13:25:06.659Z,23.40
2018-09-06T13:27:34.930Z,19.50
2018-09-06T13:30:03.281Z,19.17
2018-09-06T13:32:31.655Z,16.73
2018-09-06T13:35:00.025Z,15.27
2018-09-06T13:37:28.307Z,13.23
2018-09-06T13:39:56.668Z,13.40
2018-09-06T13:42:25.000Z,14.93
2018-09-06T13:44:53.318Z,16.90
2018-09-06T13:47:21.629Z,15.10
2018-09-06T13:49:50.026Z,11.83
2018-09-06T13:52:18.400Z,13.77
2018-09-06T13:54:46.663Z,20.60
2018-09-06T13:57:14.944Z,23.30
2018-09-06T13:59:43.318Z,21.10
2018-09-06T14:02:11.630Z,22.23
2018-09-06T14:04:40.006Z,19.87
2018-09-06T14:07:08.282Z,22.73
2018-09-06T14:09:36.616Z,21.33
2018-09-06T14:12:05.706Z,24.17
2018-09-06T14:14:34.024Z,23.37
2018-09-06T14:17:02.790Z,27.77
2018-09-06T14:19:31.237Z,22.70
2018-09-06T14:22:00.053Z,27.57
2018-09-06T14:24:28.456Z,26.40
2018-09-06T14:26:56.793Z,26.60
2018-09-06T14:29:25.403Z,29.17
2018-09-06T14:31:53.726Z,24.07
2018-09-06T14:34:22.148Z,26.10
2018-09-06T14:36:50.468Z,24.23
2018-09-06T14:39:18.893Z,26.87
2018-09-06T14:41:47.344Z,27.87
2018-09-06T14:44:15.701Z,32.70
2018-09-06T14:46:44.008Z,28.77
2018-09-06T14:49:12.365Z,33.53
2018-09-06T14:51:40.753Z,26.67
2018-09-06T14:54:09.071Z,27.27
2018-09-06T14:56:37.394Z,23.20
2018-09-06T14:59:05.680Z,27.87
2018-09-06T15:01:34.308Z,25.53
2018-09-06T15:04:02.541Z,23.93
2018-09-06T15:06:30.857Z,27.33
2018-09-06T15:08:59.169Z,25.37
2018-09-06T15:11:27.489Z,24.83
2018-09-06T15:13:55.843Z,27.23
2018-09-06T15:16:24.162Z,27.03
2018-09-06T15:18:52.455Z,28.57
2018-09-06T15:21:20.784Z,25.83
2018-09-06T15:23:49.095Z,21.33
2018-09-06T15:26:17.402Z,30.03
2018-09-06T15:28:45.791Z,27.83
2018-09-06T15:31:14.140Z,27.53
2018-09-06T15:33:42.446Z,26.37
2018-09-06T15:36:10.822Z,25.50
2018-09-06T15:38:39.164Z,28.33
2018-09-06T15:41:07.488Z,23.47
2018-09-06T15:43:36.081Z,23.17
2018-09-06T15:46:04.405Z,18.23
2018-09-06T15:48:32.697Z,22.27
2018-09-06T15:51:01.006Z,18.53
2018-09-06T15:53:29.406Z,24.03
2018-09-06T15:55:57.786Z,23.60
2018-09-06T15:58:26.078Z,24.13
2018-09-06T16:00:54.576Z,25.90
2018-09-06T16:03:22.882Z,22.53
2018-09-06T16:05:51.245Z,26.07
2018-09-06T16:08:19.573Z,25.93
2018-09-06T16:10:47.899Z,19.87
2018-09-06T16:13:16.219Z,20.50
2018-09-06T16:15:45.062Z,22.20
2018-09-06T16:18:13.415Z,25.50
2018-09-06T16:20:41.753Z,20.40
2018-09-06T16:23:10.712Z,20.90
2018-09-06T16:25:39.120Z,21.90
2018-09-06T16:28:07.502Z,21.83
2018-09-06T16:30:35.831Z,23.57
2018-09-06T16:33:04.172Z,25.13
2018-09-06T16:35:32.540Z,24.07
2018-09-06T16:38:00.905Z,23.07
2018-09-06T16:40:29.264Z,25.67
2018-09-06T16:42:57.626Z,25.47
2018-09-06T16:45:26.232Z,25.37
2018-09-06T16:47:54.502Z,28.10
2018-09-06T16:50:22.828Z,24.30
2018-09-06T16:52:51.173Z,27.27
2018-09-06T16:55:19.540Z,24.80
2018-09-06T16:57:47.930Z,25.40
2018-09-06T17:00:16.265Z,24.43
2018-09-06T17:02:44.687Z,21.47
2018-09-06T17:05:13.061Z,22.67
2018-09-06T17:07:41.439Z,19.87
2018-09-06T17:10:09.807Z,18.97
2018-09-06T17:12:38.600Z,18.83
2018-09-06T17:15:06.961Z,18.07
2018-09-06T17:17:35.255Z,22.07
2018-09-06T17:20:03.544Z,15.67
2018-09-06T17:22:31.889Z,16.77
2018-09-06T17:25:00.208Z,19.13
2018-09-06T17:27:28.525Z,16.37
2018-09-06T17:29:56.838Z,20.17
2018-09-06T17:32:25.207Z,19.97
2018-09-06T17:34:53.459Z,14.00
2018-09-06T17:37:21.812Z,13.90
2018-09-06T17:39:50.168Z,15.07
2018-09-06T17:42:18.545Z,14.60
2018-09-06T17:44:46.871Z,15.10
2018-09-06T17:47:15.643Z,13.23
2018-09-06T17:49:44.011Z,14.63
2018-09-06T17:52:12.354Z,16.73
2018-09-06T17:54:40.678Z,14.00
2018-09-06T17:57:09.351Z,12.43
2018-09-06T17:59:37.704Z,13.47
2018-09-06T18:02:06.088Z,15.17
2018-09-06T18:04:34.409Z,14.23
2018-09-06T18:07:02.867Z,16.80
2018-09-06T18:09:31.207Z,17.60
2018-09-06T18:11:59.523Z,16.77
2018-09-06T18:14:27.898Z,17.23
2018-09-06T18:16:56.210Z,18.43
2018-09-06T18:19:24.503Z,18.73
2018-09-06T18:21:52.852Z,17.37
2018-09-06T18:24:21.225Z,18.47
2018-09-06T18:26:49.550Z,17.63
2018-09-06T18:29:17.855Z,20.20
2018-09-06T18:31:46.211Z,23.17
2018-09-06T18:34:14.730Z,24.00
2018-09-06T18:36:43.084Z,20.57
2018-09-06T18:39:11.380Z,23.77
2018-09-06T18:41:39.699Z,23.47
2018-09-06T18:44:08.112Z,24.47
2018-09-06T18:46:36.436Z,22.03
2018-09-06T18:49:04.758Z,24.40
2018-09-06T18:51:33.069Z,22.37
2018-09-06T18:54:01.399Z,22.10
2018-09-06T18:56:29.820Z,19.90
2018-09-06T18:58:58.160Z,23.13
2018-09-06T19:01:26.514Z,24.07
2018-09-06T19:03:54.931Z,21.60
2018-09-06T19:06:23.289Z,24.03
2018-09-06T19:08:51.630Z,24.57
2018-09-06T19:11:20.402Z,26.53
2018-09-06T19:13:48.728Z,22.20
2018-09-06T19:16:17.042Z,24.37
2018-09-06T19:18:45.408Z,24.00
2018-09-06T19:21:13.701Z,22.23
2018-09-06T19:23:42.151Z,27.60
2018-09-06T19:26:10.520Z,23.63
2018-09-06T19:28:38.901Z,24.50
2018-09-06T19:31:14.016Z,26.87
2018-09-06T19:33:42.392Z,25.90
2018-09-06T19:36:10.718Z,25.13
2018-09-06T19:38:39.025Z,23.00
2018-09-06T19:41:07.385Z,23.33
2018-09-06T19:43:35.767Z,25.60
2018-09-06T19:46:04.091Z,26.33
2018-09-06T19:48:32.461Z,27.90
2018-09-06T19:51:00.764Z,25.93
2018-09-06T19:53:29.094Z,29.70
2018-09-06T19:55:57.458Z,30.33
2018-09-06T19:58:25.880Z,27.20
2018-09-06T20:00:54.188Z,29.10
2018-09-06T20:03:22.529Z,29.00
2018-09-06T20:05:50.994Z,26.73
2018-09-06T20:08:19.304Z,27.90
2018-09-06T20:10:47.662Z,35.63
2018-09-06T20:13:16.147Z,32.07
2018-09-06T20:15:44.443Z,32.90
2018-09-06T20:18:12.762Z,35.77
2018-09-06T20:20:41.078Z,36.90
2018-09-06T20:23:09.933Z,38.47
2018-09-06T20:25:38.300Z,35.03
2018-09-06T20:28:06.720Z,34.00
2018-09-06T20:30:35.011Z,33.00
2018-09-06T20:33:03.441Z,34.00
2018-09-06T20:35:31.784Z,34.87
2018-09-06T20:38:00.104Z,35.67
2018-09-06T20:40:28.420Z,35.10
2018-09-06T20:42:57.074Z,37.77
2018-09-06T20:45:25.418Z,37.10
2018-09-06T20:47:54.074Z,40.17
2018-09-06T20:50:22.743Z,38.27
2018-09-06T20:52:51.564Z,40.60
2018-09-06T20:55:20.010Z,36.77
2018-09-06T20:57:48.414Z,40.93
2018-09-06T21:00:17.038Z,39.27
2018-09-06T21:02:45.492Z,38.87
2018-09-06T21:05:13.944Z,41.30
2018-09-06T21:07:42.692Z,47.27
2018-09-06T21:10:11.101Z,39.03
2018-09-06T21:12:40.064Z,36.13
2018-09-06T21:15:09.625Z,39.77
2018-09-06T21:17:39.055Z,37.70
2018-09-06T21:20:07.525Z,41.23
2018-09-06T21:22:35.956Z,39.63
2018-09-06T21:25:04.461Z,38.23
2018-09-06T21:27:33.728Z,36.17
2018-09-06T21:30:02.270Z,37.87
2018-09-06T21:32:31.184Z,49.20
2018-09-06T21:34:59.570Z,41.33
2018-09-06T21:37:28.126Z,38.90
2018-09-06T21:39:56.507Z,42.27
2018-09-06T21:42:25.092Z,39.67
2018-09-06T21:44:53.468Z,40.77
2018-09-06T21:47:21.814Z,42.33
2018-09-06T21:49:50.195Z,39.97
2018-09-06T21:52:18.599Z,44.83
2018-09-06T21:54:46.983Z,43.33
2018-09-06T21:57:15.342Z,40.50
2018-09-06T21:59:43.693Z,40.60
2018-09-06T22:02:17.324Z,43.33
2018-09-06T22:04:45.723Z,36.90
2018-09-06T22:07:14.024Z,38.83
2018-09-06T22:09:42.394Z,39.97
2018-09-06T22:12:16.748Z,35.77
2018-09-06T22:14:46.217Z,37.57
2018-09-06T22:17:14.812Z,32.43
2018-09-06T22:19:43.143Z,36.00
2018-09-06T22:22:11.432Z,37.00
2018-09-06T22:24:40.032Z,37.03
2018-09-06T22:27:08.562Z,42.00
2018-09-06T22:29:37.112Z,37.07
2018-09-06T22:32:05.878Z,36.57
2018-09-06T22:34:34.247Z,35.37
2018-09-06T22:37:02.606Z,34.77
2018-09-06T22:39:31.413Z,35.63
2018-09-06T22:41:59.984Z,38.87
2018-09-06T22:44:28.538Z,35.13
2018-09-06T22:46:56.860Z,38.40
2018-09-06T22:49:25.438Z,37.00
2018-09-06T22:51:53.821Z,37.80
2018-09-06T22:54:22.182Z,44.77
2018-09-06T22:56:50.686Z,37.87
2018-09-06T22:59:19.054Z,40.40
2018-09-06T23:01:47.396Z,37.33
2018-09-06T23:04:15.743Z,41.90
2018-09-06T23:06:44.120Z,39.23
2018-09-06T23:09:12.524Z,39.67
2018-09-06T23:11:40.910Z,37.47
2018-09-06T23:14:09.250Z,42.70
2018-09-06T23:16:37.575Z,41.33
2018-09-06T23:19:06.203Z,38.73
2018-09-06T23:21:34.516Z,40.23
2018-09-06T23:24:03.001Z,37.87
2018-09-06T23:26:31.426Z,37.53
2018-09-06T23:28:59.816Z,37.07
2018-09-06T23:31:28.255Z,43.63
2018-09-06T23:33:56.547Z,41.63
2018-09-06T23:36:24.880Z,41.97
2018-09-06T23:38:53.192Z,43.00
2018-09-06T23:41:21.576Z,45.43
2018-09-06T23:43:49.904Z,42.27
2018-09-06T23:46:18.280Z,37.73
2018-09-06T23:48:46.584Z,40.37
2018-09-06T23:51:14.884Z,38.33
2018-09-06T23:53:43.262Z,41.03
2018-09-06T23:56:11.622Z,40.20
2018-09-06T23:58:39.949Z,43.17
